createdAt,value
2017-10-27T00:00:39.535Z,1014.2
2017-10-27T00:01:48.887Z,1014.23
2017-10-27T00:02:58.923Z,1014.21
2017-10-27T00:04:09.334Z,1014.23
2017-10-27T00:05:20.186Z,1014.18
2017-10-27T00:06:31.321Z,1014.16
2017-10-27T00:07:41.004Z,1014.23
2017-10-27T00:08:50.697Z,1014.22
2017-10-27T00:10:01.086Z,1014.3
2017-10-27T00:11:10.771Z,1014.25
2017-10-27T00:12:20.480Z,1014.19
2017-10-27T00:13:30.208Z,1014.23
2017-10-27T00:14:39.898Z,1014.18
2017-10-27T00:15:49.912Z,1014.2
2017-10-27T00:16:59.255Z,1014.23
2017-10-27T00:18:09.273Z,1014.22
2017-10-27T00:19:18.615Z,1014.19
2017-10-27T00:20:28.304Z,1014.21
2017-10-27T00:21:37.647Z,1014.19
2017-10-27T00:22:47.342Z,1014.13
2017-10-27T00:23:57.390Z,1014.17
2017-10-27T00:25:06.821Z,1014.14
2017-10-27T00:26:17.190Z,1014.15
2017-10-27T00:27:26.561Z,1014.17
2017-10-27T00:28:36.570Z,1014.12
2017-10-27T00:29:46.254Z,1014.19
2017-10-27T00:30:56.274Z,1014.21
2017-10-27T00:32:06.629Z,1014.29
2017-10-27T00:33:16.642Z,1014.3
2017-10-27T00:34:26.997Z,1014.29
2017-10-27T00:35:36.339Z,1014.28
2017-10-27T00:36:45.682Z,1014.23
2017-10-27T00:37:55.022Z,1014.21
2017-10-27T00:39:04.374Z,1014.21
2017-10-27T00:40:14.060Z,1014.2
2017-10-27T00:41:24.407Z,1014.24
2017-10-27T00:42:34.438Z,1014.21
2017-10-27T00:43:44.240Z,1014.2
2017-10-27T00:44:54.323Z,1014.16
2017-10-27T00:46:03.692Z,1014.19
2017-10-27T00:47:13.045Z,1014.24
2017-10-27T00:48:22.738Z,1014.22
2017-10-27T00:49:32.755Z,1014.28
2017-10-27T00:50:42.429Z,1014.35
2017-10-27T00:51:51.785Z,1014.27
2017-10-27T00:53:01.482Z,1014.31
2017-10-27T00:54:11.498Z,1014.26
2017-10-27T00:55:21.855Z,1014.29
2017-10-27T00:56:31.538Z,1014.22
2017-10-27T00:57:40.882Z,1014.22
2017-10-27T00:58:50.901Z,1014.2
2017-10-27T01:00:00.589Z,1014.22
2017-10-27T01:01:10.277Z,1014.17
2017-10-27T01:02:20.287Z,1014.17
2017-10-27T01:03:30.305Z,1014.21
2017-10-27T01:04:39.650Z,1014.24
2017-10-27T01:05:48.992Z,1014.19
2017-10-27T01:06:59.004Z,1014.27
2017-10-27T01:08:09.028Z,1014.24
2017-10-27T01:09:18.042Z,1014.29
2017-10-27T01:10:28.064Z,1014.29
2017-10-27T01:11:37.418Z,1014.25
2017-10-27T01:12:47.095Z,1014.22
2017-10-27T01:13:56.775Z,1014.18
2017-10-27T01:15:06.793Z,1014.16
2017-10-27T01:16:17.143Z,1014.18
2017-10-27T01:17:26.822Z,1014.12
2017-10-27T01:18:36.838Z,1014.09
2017-10-27T01:19:47.189Z,1014.16
2017-10-27T01:20:57.201Z,1014.07
2017-10-27T01:22:07.227Z,1014.03
2017-10-27T01:23:16.904Z,1014.05
2017-10-27T01:24:27.255Z,1014.09
2017-10-27T01:25:36.938Z,1014.1
2017-10-27T01:26:46.618Z,1014.09
2017-10-27T01:27:56.628Z,1014.08
2017-10-27T01:29:05.310Z,1014.03
2017-10-27T01:30:14.992Z,1014.05
2017-10-27T01:31:25.017Z,1014.01
2017-10-27T01:32:35.074Z,1014.02
2017-10-27T01:33:44.767Z,1014.08
2017-10-27T01:34:54.461Z,1014.06
2017-10-27T01:36:04.489Z,1014.07
2017-10-27T01:37:14.193Z,1014.09
2017-10-27T01:38:24.223Z,1014.04
2017-10-27T01:39:34.247Z,1014.02
2017-10-27T01:40:43.947Z,1013.96
2017-10-27T01:41:53.974Z,1013.92
2017-10-27T01:43:03.990Z,1013.93
2017-10-27T01:44:13.675Z,1013.93
2017-10-27T01:45:23.717Z,1013.91
2017-10-27T01:46:33.740Z,1013.92
2017-10-27T01:47:43.779Z,1013.84
2017-10-27T01:48:53.471Z,1013.86
2017-10-27T01:50:03.487Z,1013.84
2017-10-27T01:51:13.191Z,1013.79
2017-10-27T01:52:22.887Z,1013.76
2017-10-27T01:53:32.919Z,1013.8
2017-10-27T01:54:42.607Z,1013.84
2017-10-27T01:55:52.621Z,1013.78
2017-10-27T01:57:02.653Z,1013.8
2017-10-27T01:58:12.674Z,1013.76
2017-10-27T01:59:21.684Z,1013.77
2017-10-27T02:00:32.035Z,1013.74
2017-10-27T02:01:41.386Z,1013.76
2017-10-27T02:02:51.089Z,1013.72
2017-10-27T02:04:01.109Z,1013.73
2017-10-27T02:05:11.468Z,1013.77
2017-10-27T02:06:21.175Z,1013.75
2017-10-27T02:07:30.875Z,1013.75
2017-10-27T02:08:40.555Z,1013.76
2017-10-27T02:09:50.921Z,1013.75
2017-10-27T02:11:00.617Z,1013.69
2017-10-27T02:12:10.687Z,1013.75
2017-10-27T02:13:20.395Z,1013.74
2017-10-27T02:14:30.462Z,1013.74
2017-10-27T02:15:40.171Z,1013.73
2017-10-27T02:16:49.875Z,1013.75
2017-10-27T02:17:59.560Z,1013.76
2017-10-27T02:19:09.271Z,1013.8
2017-10-27T02:20:18.956Z,1013.8
2017-10-27T02:21:29.009Z,1013.83
2017-10-27T02:22:39.032Z,1013.84
2017-10-27T02:23:48.727Z,1013.88
2017-10-27T02:24:58.415Z,1013.9
2017-10-27T02:26:08.442Z,1013.93
2017-10-27T02:27:17.799Z,1013.86
2017-10-27T02:28:27.495Z,1013.82
2017-10-27T02:29:37.875Z,1013.83
2017-10-27T02:30:47.551Z,1013.8
2017-10-27T02:31:57.586Z,1013.88
2017-10-27T02:33:07.637Z,1013.77
2017-10-27T02:34:16.649Z,1013.81
2017-10-27T02:35:26.693Z,1013.77
2017-10-27T02:36:37.054Z,1013.8
2017-10-27T02:37:47.449Z,1013.77
2017-10-27T02:38:57.479Z,1013.78
2017-10-27T02:40:07.496Z,1013.78
2017-10-27T02:41:17.533Z,1013.73
2017-10-27T02:42:27.220Z,1013.71
2017-10-27T02:43:36.903Z,1013.8
2017-10-27T02:44:47.261Z,1013.82
2017-10-27T02:45:57.286Z,1013.8
2017-10-27T02:47:06.972Z,1013.75
2017-10-27T02:48:17.030Z,1013.69
2017-10-27T02:49:27.058Z,1013.68
2017-10-27T02:50:36.409Z,1013.7
2017-10-27T02:51:46.449Z,1013.74
2017-10-27T02:52:56.139Z,1013.78
2017-10-27T02:54:06.535Z,1013.76
2017-10-27T02:55:16.587Z,1013.82
2017-10-27T02:56:26.941Z,1013.76
2017-10-27T02:57:37.292Z,1013.82
2017-10-27T02:58:46.991Z,1013.76
2017-10-27T02:59:57.026Z,1013.76
2017-10-27T03:01:07.055Z,1013.74
2017-10-27T03:02:17.074Z,1013.77
2017-10-27T03:03:27.436Z,1013.75
2017-10-27T03:04:37.788Z,1013.85
2017-10-27T03:05:47.827Z,1013.84
2017-10-27T03:06:57.843Z,1013.86
2017-10-27T03:08:07.875Z,1013.85
2017-10-27T03:09:17.917Z,1013.84
2017-10-27T03:10:27.978Z,1013.8
2017-10-27T03:11:37.664Z,1013.82
2017-10-27T03:12:47.360Z,1013.8
2017-10-27T03:13:57.393Z,1013.79
2017-10-27T03:15:06.403Z,1013.79
2017-10-27T03:16:16.754Z,1013.83
2017-10-27T03:17:26.474Z,1013.84
2017-10-27T03:18:36.830Z,1013.83
2017-10-27T03:19:45.848Z,1013.85
2017-10-27T03:20:55.863Z,1013.94
2017-10-27T03:22:06.232Z,1013.96
2017-10-27T03:23:16.256Z,1013.99
2017-10-27T03:24:26.290Z,1013.96
2017-10-27T03:25:36.316Z,1014.09
2017-10-27T03:26:45.990Z,1014.22
2017-10-27T03:27:56.012Z,1014.16
2017-10-27T03:29:06.046Z,1014.08
2017-10-27T03:30:16.074Z,1014.02
2017-10-27T03:31:26.456Z,1014.09
2017-10-27T03:32:36.462Z,1014.02
2017-10-27T03:33:46.489Z,1014.03
2017-10-27T03:34:56.175Z,1013.99
2017-10-27T03:36:06.533Z,1013.98
2017-10-27T03:37:16.555Z,1014.02
2017-10-27T03:38:26.242Z,1013.97
2017-10-27T03:39:35.945Z,1014.06
2017-10-27T03:40:45.627Z,1014.02
2017-10-27T03:41:55.981Z,1014.06
2017-10-27T03:43:06.359Z,1013.97
2017-10-27T03:44:16.052Z,1014.19
2017-10-27T03:45:26.078Z,1014.24
2017-10-27T03:46:35.428Z,1014.18
2017-10-27T03:47:44.789Z,1014.16
2017-10-27T03:48:54.138Z,1014.19
2017-10-27T03:50:04.526Z,1014.14
2017-10-27T03:51:14.884Z,1014.1
2017-10-27T03:52:24.572Z,1014
2017-10-27T03:53:34.623Z,1014.06
2017-10-27T03:54:43.984Z,1014
2017-10-27T03:55:53.658Z,1014
2017-10-27T03:57:03.337Z,1014.04
2017-10-27T03:58:13.014Z,1014.05
2017-10-27T03:59:22.703Z,1014.12
2017-10-27T04:00:32.719Z,1014.16
2017-10-27T04:01:42.407Z,1014.02
2017-10-27T04:02:52.787Z,1014.08
2017-10-27T04:04:02.811Z,1014.06
2017-10-27T04:05:12.491Z,1014.11
2017-10-27T04:06:22.518Z,1014.18
2017-10-27T04:07:31.878Z,1014.19
2017-10-27T04:08:41.305Z,1014.27
2017-10-27T04:09:51.366Z,1014.28
2017-10-27T04:11:01.375Z,1014.3
2017-10-27T04:12:11.743Z,1014.25
2017-10-27T04:13:21.838Z,1014.28
2017-10-27T04:14:31.942Z,1014.28
2017-10-27T04:15:41.955Z,1014.27
2017-10-27T04:16:51.979Z,1014.29
2017-10-27T04:18:02.358Z,1014.31
2017-10-27T04:19:12.558Z,1014.3
2017-10-27T04:20:22.270Z,1014.24
2017-10-27T04:21:32.652Z,1014.31
2017-10-27T04:22:41.998Z,1014.32
2017-10-27T04:23:51.859Z,1014.34
2017-10-27T04:25:02.346Z,1014.3
2017-10-27T04:26:13.557Z,1014.32
2017-10-27T04:27:23.182Z,1014.38
2017-10-27T04:28:33.344Z,1014.31
2017-10-27T04:29:43.025Z,1014.41
2017-10-27T04:30:53.088Z,1014.47
2017-10-27T04:32:02.589Z,1014.41
2017-10-27T04:33:12.607Z,1014.43
2017-10-27T04:34:22.966Z,1014.45
2017-10-27T04:35:33.312Z,1014.5
2017-10-27T04:36:43.041Z,1014.47
2017-10-27T04:37:53.389Z,1014.46
2017-10-27T04:39:03.414Z,1014.48
2017-10-27T04:40:13.765Z,1014.53
2017-10-27T04:41:23.473Z,1014.49
2017-10-27T04:42:33.182Z,1014.52
2017-10-27T04:43:43.261Z,1014.53
2017-10-27T04:44:52.972Z,1014.52
2017-10-27T04:46:03.381Z,1014.55
2017-10-27T04:47:12.733Z,1014.55
2017-10-27T04:48:22.754Z,1014.55
2017-10-27T04:49:32.435Z,1014.65
2017-10-27T04:50:42.551Z,1014.67
2017-10-27T04:51:52.265Z,1014.63
2017-10-27T04:53:02.350Z,1014.68
2017-10-27T04:54:12.407Z,1014.77
2017-10-27T04:55:22.756Z,1014.71
2017-10-27T04:56:32.785Z,1014.68
2017-10-27T04:57:43.205Z,1014.78
2017-10-27T04:58:52.890Z,1014.7
2017-10-27T05:00:02.925Z,1014.68
2017-10-27T05:01:13.009Z,1014.71
2017-10-27T05:02:22.349Z,1014.67
2017-10-27T05:03:32.045Z,1014.57
2017-10-27T05:04:42.452Z,1014.71
2017-10-27T05:05:52.492Z,1014.76
2017-10-27T05:07:02.547Z,1014.78
2017-10-27T05:08:12.251Z,1014.82
2017-10-27T05:09:21.941Z,1014.85
2017-10-27T05:10:31.629Z,1014.89
2017-10-27T05:11:41.654Z,1014.84
2017-10-27T05:12:52.041Z,1014.81
2017-10-27T05:14:01.733Z,1014.86
2017-10-27T05:15:11.112Z,1014.83
2017-10-27T05:16:20.793Z,1014.83
2017-10-27T05:17:30.555Z,1014.83
2017-10-27T05:18:40.579Z,1014.85
2017-10-27T05:19:49.930Z,1014.95
2017-10-27T05:20:59.628Z,1014.79
2017-10-27T05:22:08.985Z,1014.82
2017-10-27T05:23:18.673Z,1014.87
2017-10-27T05:24:28.720Z,1014.88
2017-10-27T05:25:38.437Z,1014.98
2017-10-27T05:26:48.459Z,1015
2017-10-27T05:27:58.143Z,1014.93
2017-10-27T05:29:08.161Z,1014.94
2017-10-27T05:30:18.180Z,1014.93
2017-10-27T05:31:27.196Z,1015.01
2017-10-27T05:32:37.590Z,1014.95
2017-10-27T05:33:47.642Z,1014.96
2017-10-27T05:34:58.698Z,1015.04
2017-10-27T05:36:08.217Z,1015.05
2017-10-27T05:37:18.606Z,1015.09
2017-10-27T05:38:27.988Z,1015.01
2017-10-27T05:39:38.495Z,1014.96
2017-10-27T05:40:48.236Z,1014.99
2017-10-27T05:41:57.594Z,1015.01
2017-10-27T05:43:07.966Z,1015.04
2017-10-27T05:44:18.474Z,1015.05
2017-10-27T05:45:28.614Z,1015.06
2017-10-27T05:46:37.976Z,1015.04
2017-10-27T05:47:48.044Z,1015.04
2017-10-27T05:48:58.109Z,1015.09
2017-10-27T05:50:07.835Z,1015.03
2017-10-27T05:51:17.239Z,1015.02
2017-10-27T05:52:27.259Z,1014.96
2017-10-27T05:53:36.969Z,1015.01
2017-10-27T05:54:47.331Z,1015.02
2017-10-27T05:55:57.347Z,1015.08
2017-10-27T05:57:06.707Z,1015.06
2017-10-27T05:58:16.735Z,1015.2
2017-10-27T05:59:26.767Z,1015.17
2017-10-27T06:00:36.796Z,1015.21
2017-10-27T06:01:46.481Z,1015.33
2017-10-27T06:02:56.526Z,1015.26
2017-10-27T06:04:06.878Z,1015.28
2017-10-27T06:05:16.884Z,1015.34
2017-10-27T06:06:26.563Z,1015.31
2017-10-27T06:07:36.246Z,1015.38
2017-10-27T06:08:45.938Z,1015.44
2017-10-27T06:09:55.959Z,1015.46
2017-10-27T06:11:05.657Z,1015.42
2017-10-27T06:12:15.691Z,1015.31
2017-10-27T06:13:26.043Z,1015.43
2017-10-27T06:14:35.819Z,1015.53
2017-10-27T06:15:45.837Z,1015.5
2017-10-27T06:16:56.194Z,1015.51
2017-10-27T06:18:05.868Z,1015.49
2017-10-27T06:19:15.885Z,1015.5
2017-10-27T06:20:25.908Z,1015.59
2017-10-27T06:21:35.590Z,1015.48
2017-10-27T06:22:45.605Z,1015.51
2017-10-27T06:23:54.950Z,1015.58
2017-10-27T06:25:04.985Z,1015.76
2017-10-27T06:26:15.513Z,1015.59
2017-10-27T06:27:25.555Z,1015.65
2017-10-27T06:28:35.578Z,1015.69
2017-10-27T06:29:45.262Z,1015.66
2017-10-27T06:30:54.961Z,1015.67
2017-10-27T06:32:04.982Z,1015.66
2017-10-27T06:33:14.660Z,1015.69
2017-10-27T06:34:24.005Z,1015.7
2017-10-27T06:35:33.681Z,1015.72
2017-10-27T06:36:43.396Z,1015.77
2017-10-27T06:37:53.442Z,1015.78
2017-10-27T06:39:02.454Z,1015.83
2017-10-27T06:40:12.471Z,1015.94
2017-10-27T06:41:22.526Z,1015.92
2017-10-27T06:42:32.902Z,1015.92
2017-10-27T06:43:42.934Z,1015.93
2017-10-27T06:44:53.383Z,1015.88
2017-10-27T06:46:03.058Z,1015.92
2017-10-27T06:47:12.771Z,1015.96
2017-10-27T06:48:22.182Z,1015.93
2017-10-27T06:49:32.382Z,1015.94
2017-10-27T06:50:42.161Z,1016.01
2017-10-27T06:51:52.379Z,1015.96
2017-10-27T06:53:01.973Z,1016.1
2017-10-27T06:54:11.703Z,1016.09
2017-10-27T06:55:21.874Z,1016.11
2017-10-27T06:56:31.720Z,1016.16
2017-10-27T06:57:41.457Z,1016.09
2017-10-27T06:58:51.741Z,1016.12
2017-10-27T07:00:01.682Z,1016.09
2017-10-27T07:01:12.087Z,1016.07
2017-10-27T07:02:22.680Z,1016.08
2017-10-27T07:03:32.547Z,1016.14
2017-10-27T07:04:42.969Z,1016.21
2017-10-27T07:05:53.193Z,1016.24
2017-10-27T07:07:03.467Z,1016.21
2017-10-27T07:08:13.184Z,1016.2
2017-10-27T07:09:23.356Z,1016.23
2017-10-27T07:10:33.272Z,1016.29
2017-10-27T07:11:43.343Z,1016.29
2017-10-27T07:12:53.931Z,1016.34
2017-10-27T07:14:03.813Z,1016.45
2017-10-27T07:15:13.839Z,1016.49
2017-10-27T07:16:23.521Z,1016.45
2017-10-27T07:17:33.541Z,1016.41
2017-10-27T07:18:43.901Z,1016.44
2017-10-27T07:19:53.936Z,1016.4
2017-10-27T07:21:03.984Z,1016.47
2017-10-27T07:22:14.443Z,1016.46
2017-10-27T07:23:23.795Z,1016.45
2017-10-27T07:24:33.818Z,1016.48
2017-10-27T07:25:42.825Z,1016.47
2017-10-27T07:26:52.521Z,1016.54
2017-10-27T07:28:02.572Z,1016.54
2017-10-27T07:29:11.878Z,1016.62
2017-10-27T07:30:21.564Z,1016.57
2017-10-27T07:31:30.917Z,1016.59
2017-10-27T07:32:40.967Z,1016.66
2017-10-27T07:33:50.656Z,1016.73
2017-10-27T07:35:00.346Z,1016.66
2017-10-27T07:36:10.386Z,1016.66
2017-10-27T07:37:20.115Z,1016.71
2017-10-27T07:38:29.491Z,1016.8
2017-10-27T07:39:39.182Z,1016.73
2017-10-27T07:40:49.234Z,1016.73
2017-10-27T07:41:59.262Z,1016.73
2017-10-27T07:43:09.656Z,1016.78
2017-10-27T07:44:19.000Z,1016.77
2017-10-27T07:45:29.046Z,1016.78
2017-10-27T07:46:38.781Z,1016.85
2017-10-27T07:47:48.125Z,1016.78
2017-10-27T07:48:58.141Z,1016.83
2017-10-27T07:50:08.526Z,1016.87
2017-10-27T07:51:18.876Z,1016.9
2017-10-27T07:52:29.239Z,1016.89
2017-10-27T07:53:39.289Z,1016.91
2017-10-27T07:54:48.994Z,1016.99
2017-10-27T07:55:58.675Z,1017.1
2017-10-27T07:57:08.693Z,1017.17
2017-10-27T07:58:18.727Z,1017.11
2017-10-27T07:59:27.744Z,1017.18
2017-10-27T08:00:38.102Z,1017.21
2017-10-27T08:01:48.546Z,1017.17
2017-10-27T08:02:59.104Z,1017.17
2017-10-27T08:04:09.659Z,1017.19
2017-10-27T08:05:19.337Z,1017.27
2017-10-27T08:06:28.417Z,1017.23
2017-10-27T08:07:38.127Z,1017.34
2017-10-27T08:08:48.163Z,1017.27
2017-10-27T08:09:58.270Z,1017.27
2017-10-27T08:11:07.970Z,1017.31
2017-10-27T08:12:17.987Z,1017.25
2017-10-27T08:13:28.399Z,1017.39
2017-10-27T08:14:38.477Z,1017.31
2017-10-27T08:15:48.893Z,1017.31
2017-10-27T08:16:59.325Z,1017.31
2017-10-27T08:18:09.375Z,1017.32
2017-10-27T08:19:19.411Z,1017.29
2017-10-27T08:20:29.771Z,1017.27
2017-10-27T08:21:39.798Z,1017.27
2017-10-27T08:22:49.486Z,1017.27
2017-10-27T08:23:59.856Z,1017.33
2017-10-27T08:25:10.217Z,1017.33
2017-10-27T08:26:20.239Z,1017.36
2017-10-27T08:27:29.616Z,1017.36
2017-10-27T08:28:39.001Z,1017.43
2017-10-27T08:29:49.031Z,1017.35
2017-10-27T08:30:59.049Z,1017.35
2017-10-27T08:32:08.735Z,1017.4
2017-10-27T08:33:18.758Z,1017.46
2017-10-27T08:34:28.770Z,1017.49
2017-10-27T08:35:38.462Z,1017.47
2017-10-27T08:36:48.812Z,1017.49
2017-10-27T08:37:58.862Z,1017.54
2017-10-27T08:39:09.430Z,1017.54
2017-10-27T08:40:18.987Z,1017.58
2017-10-27T08:41:29.348Z,1017.58
2017-10-27T08:42:40.005Z,1017.72
2017-10-27T08:43:49.832Z,1017.68
2017-10-27T08:44:59.919Z,1017.73
2017-10-27T08:46:09.951Z,1017.64
2017-10-27T08:47:19.652Z,1017.74
2017-10-27T08:48:29.345Z,1017.74
2017-10-27T08:49:39.816Z,1017.76
2017-10-27T08:50:49.860Z,1017.77
2017-10-27T08:51:59.228Z,1017.68
2017-10-27T08:53:08.927Z,1017.77
2017-10-27T08:54:18.657Z,1017.78
2017-10-27T08:55:28.335Z,1017.75
2017-10-27T08:56:38.365Z,1017.85
2017-10-27T08:57:48.056Z,1017.79
2017-10-27T08:58:58.095Z,1017.91
2017-10-27T09:00:08.157Z,1017.88
2017-10-27T09:01:18.196Z,1017.84
2017-10-27T09:02:28.224Z,1017.87
2017-10-27T09:03:38.247Z,1017.86
2017-10-27T09:04:47.938Z,1017.88
2017-10-27T09:05:58.336Z,1017.9
2017-10-27T09:07:08.042Z,1018.05
2017-10-27T09:08:18.106Z,1017.99
2017-10-27T09:09:27.843Z,1017.93
2017-10-27T09:10:37.858Z,1017.88
2017-10-27T09:11:47.209Z,1018.01
2017-10-27T09:12:57.569Z,1017.88
2017-10-27T09:14:07.255Z,1017.97
2017-10-27T09:15:17.611Z,1018.08
2017-10-27T09:16:26.970Z,1018.02
2017-10-27T09:17:37.367Z,1018.13
2017-10-27T09:18:47.393Z,1018.12
2017-10-27T09:19:57.156Z,1018.05
2017-10-27T09:21:07.278Z,1018.14
2017-10-27T09:22:16.645Z,1018.11
2017-10-27T09:23:26.997Z,1018.15
2017-10-27T09:24:36.683Z,1018.22
2017-10-27T09:25:46.401Z,1018.21
2017-10-27T09:26:56.102Z,1018.24
2017-10-27T09:28:05.835Z,1018.3
2017-10-27T09:29:15.909Z,1018.24
2017-10-27T09:30:25.957Z,1018.28
2017-10-27T09:31:35.634Z,1018.4
2017-10-27T09:32:45.382Z,1018.32
2017-10-27T09:33:55.739Z,1018.37
2017-10-27T09:35:05.425Z,1018.49
2017-10-27T09:36:15.447Z,1018.68
2017-10-27T09:37:25.505Z,1018.43
2017-10-27T09:38:35.740Z,1018.47
2017-10-27T09:39:46.249Z,1018.55
2017-10-27T09:40:56.273Z,1018.56
2017-10-27T09:42:06.128Z,1018.59
2017-10-27T09:43:16.253Z,1018.53
2017-10-27T09:44:26.660Z,1018.63
2017-10-27T09:45:37.499Z,1018.57
2017-10-27T09:46:47.669Z,1018.63
2017-10-27T09:47:57.074Z,1018.86
2017-10-27T09:49:07.273Z,1018.61
2017-10-27T09:50:17.092Z,1018.67
2017-10-27T09:51:26.165Z,1018.87
2017-10-27T09:52:36.336Z,1019.02
2017-10-27T09:53:46.531Z,1018.84
2017-10-27T09:54:56.375Z,1018.86
2017-10-27T09:56:05.483Z,1018.98
2017-10-27T09:57:15.725Z,1018.85
2017-10-27T09:58:25.571Z,1018.93
2017-10-27T09:59:35.950Z,1018.89
2017-10-27T10:00:45.112Z,1018.79
2017-10-27T10:01:55.197Z,1018.82
2017-10-27T10:03:05.326Z,1018.92
2017-10-27T10:04:15.780Z,1018.81
2017-10-27T10:05:25.388Z,1018.9
2017-10-27T10:06:35.149Z,1018.86
2017-10-27T10:07:45.210Z,1018.91
2017-10-27T10:08:54.996Z,1018.82
2017-10-27T10:10:05.193Z,1018.9
2017-10-27T10:11:14.915Z,1018.87
2017-10-27T10:12:25.510Z,1018.9
2017-10-27T10:13:35.356Z,1018.96
2017-10-27T10:14:45.829Z,1018.93
2017-10-27T10:15:56.397Z,1018.98
2017-10-27T10:17:06.647Z,1018.84
2017-10-27T10:18:16.409Z,1018.95
2017-10-27T10:19:27.007Z,1018.93
2017-10-27T10:20:37.594Z,1018.92
2017-10-27T10:21:47.083Z,1019.01
2017-10-27T10:22:57.983Z,1019.01
2017-10-27T10:24:08.270Z,1019.15
2017-10-27T10:25:18.417Z,1019.1
2017-10-27T10:26:28.646Z,1019.28
2017-10-27T10:27:38.177Z,1019.08
2017-10-27T10:28:48.296Z,1019.11
2017-10-27T10:29:58.592Z,1019.08
2017-10-27T10:31:09.085Z,1019.37
2017-10-27T10:32:19.491Z,1019.21
2017-10-27T10:33:29.745Z,1019.23
2017-10-27T10:34:40.213Z,1019.26
2017-10-27T10:35:50.300Z,1019.21
2017-10-27T10:37:00.100Z,1019.19
2017-10-27T10:38:10.624Z,1019.22
2017-10-27T10:39:20.724Z,1019.17
2017-10-27T10:40:30.967Z,1019.22
2017-10-27T10:41:40.831Z,1019.16
2017-10-27T10:42:50.563Z,1019.29
2017-10-27T10:44:01.162Z,1019.12
2017-10-27T10:45:11.020Z,1019.15
2017-10-27T10:46:20.759Z,1019.14
2017-10-27T10:47:31.352Z,1019.12
2017-10-27T10:48:41.227Z,1019.13
2017-10-27T10:49:51.303Z,1019.29
2017-10-27T10:51:00.756Z,1019.24
2017-10-27T10:52:10.536Z,1019.19
2017-10-27T10:53:20.253Z,1019.24
2017-10-27T10:54:30.146Z,1019.31
2017-10-27T10:55:39.989Z,1019.24
2017-10-27T10:56:49.732Z,1019.34
2017-10-27T10:57:59.986Z,1019.24
2017-10-27T10:59:09.880Z,1019.39
2017-10-27T11:00:19.575Z,1019.38
2017-10-27T11:01:30.083Z,1019.21
2017-10-27T11:02:40.376Z,1019.16
2017-10-27T11:03:50.444Z,1019.2
2017-10-27T11:05:00.701Z,1019.24
2017-10-27T11:06:10.893Z,1019.19
2017-10-27T11:07:20.607Z,1019.2
2017-10-27T11:08:30.796Z,1019.19
2017-10-27T11:09:41.011Z,1019.16
2017-10-27T11:10:50.861Z,1019.2
2017-10-27T11:12:00.277Z,1019.3
2017-10-27T11:13:10.755Z,1019.34
2017-10-27T11:14:20.834Z,1019.25
2017-10-27T11:15:30.496Z,1019.15
2017-10-27T11:16:40.642Z,1019.13
2017-10-27T11:17:51.070Z,1019.6
2017-10-27T11:19:00.646Z,1019.22
2017-10-27T11:20:10.438Z,1019.45
2017-10-27T11:21:20.483Z,1019.28
2017-10-27T11:22:30.750Z,1019.29
2017-10-27T11:23:41.284Z,1019.29
2017-10-27T11:24:50.642Z,1019.33
2017-10-27T11:26:00.446Z,1019.28
2017-10-27T11:27:10.208Z,1019.38
2017-10-27T11:28:19.961Z,1019.44
2017-10-27T11:29:29.636Z,1019.44
2017-10-27T11:30:39.315Z,1019.44
2017-10-27T11:31:48.667Z,1019.41
2017-10-27T11:32:58.697Z,1019.42
2017-10-27T11:34:08.371Z,1019.4
2017-10-27T11:35:18.396Z,1019.36
2017-10-27T11:36:28.420Z,1019.36
2017-10-27T11:37:38.764Z,1019.41
2017-10-27T11:38:49.115Z,1019.4
2017-10-27T11:39:58.802Z,1019.36
2017-10-27T11:41:08.830Z,1019.36
2017-10-27T11:42:18.856Z,1019.46
2017-10-27T11:43:28.893Z,1019.4
2017-10-27T11:44:38.638Z,1019.39
2017-10-27T11:45:48.996Z,1019.4
2017-10-27T11:46:58.678Z,1019.38
2017-10-27T11:48:09.057Z,1019.39
2017-10-27T11:49:18.749Z,1019.37
2017-10-27T11:50:28.760Z,1019.32
2017-10-27T11:51:38.109Z,1019.35
2017-10-27T11:52:47.129Z,1019.36
2017-10-27T11:53:56.807Z,1019.4
2017-10-27T11:55:06.818Z,1019.41
2017-10-27T11:56:16.838Z,1019.26
2017-10-27T11:57:26.529Z,1019.33
2017-10-27T11:58:36.889Z,1019.32
2017-10-27T11:59:45.904Z,1019.39
2017-10-27T12:00:55.595Z,1019.49
2017-10-27T12:02:05.953Z,1019.37
2017-10-27T12:03:15.644Z,1019.52
2017-10-27T12:04:25.333Z,1019.38
2017-10-27T12:05:35.024Z,1019.41
2017-10-27T12:06:45.041Z,1019.36
2017-10-27T12:07:55.064Z,1019.41
2017-10-27T12:09:04.597Z,1019.41
2017-10-27T12:10:14.946Z,1019.43
2017-10-27T12:11:24.642Z,1019.43
2017-10-27T12:12:34.692Z,1019.42
2017-10-27T12:13:44.375Z,1019.51
2017-10-27T12:14:54.470Z,1019.53
2017-10-27T12:16:04.170Z,1019.5
2017-10-27T12:17:13.853Z,1019.57
2017-10-27T12:18:23.544Z,1019.45
2017-10-27T12:19:33.566Z,1019.39
2017-10-27T12:20:42.921Z,1019.44
2017-10-27T12:21:53.271Z,1019.35
2017-10-27T12:23:03.295Z,1019.36
2017-10-27T12:24:13.330Z,1019.47
2017-10-27T12:25:23.059Z,1019.53
2017-10-27T12:26:33.429Z,1019.53
2017-10-27T12:27:42.801Z,1019.73
2017-10-27T12:28:52.480Z,1019.57
2017-10-27T12:30:02.164Z,1019.81
2017-10-27T12:31:12.185Z,1019.48
2017-10-27T12:32:21.922Z,1019.66
2017-10-27T12:33:31.617Z,1019.66
2017-10-27T12:34:41.329Z,1019.6
2017-10-27T12:35:51.378Z,1019.57
2017-10-27T12:37:01.396Z,1019.57
2017-10-27T12:38:10.749Z,1019.63
2017-10-27T12:39:20.768Z,1019.6
2017-10-27T12:40:30.461Z,1019.6
2017-10-27T12:41:39.471Z,1019.65
2017-10-27T12:42:49.489Z,1019.61
2017-10-27T12:43:58.863Z,1019.51
2017-10-27T12:45:08.553Z,1019.57
2017-10-27T12:46:18.922Z,1019.57
2017-10-27T12:47:28.632Z,1019.61
2017-10-27T12:48:38.314Z,1019.58
2017-10-27T12:49:48.681Z,1019.64
2017-10-27T12:50:58.021Z,1019.74
2017-10-27T12:52:08.047Z,1019.6
2017-10-27T12:53:17.732Z,1019.54
2017-10-27T12:54:28.270Z,1019.88
2017-10-27T12:55:38.014Z,1019.71
2017-10-27T12:56:48.153Z,1019.73
2017-10-27T12:57:57.880Z,1019.63
2017-10-27T12:59:07.767Z,1019.68
2017-10-27T13:00:18.312Z,1019.69
2017-10-27T13:01:28.062Z,1019.65
2017-10-27T13:02:37.922Z,1019.67
2017-10-27T13:03:48.133Z,1019.77
2017-10-27T13:04:58.556Z,1019.7
2017-10-27T13:06:08.804Z,1019.74
2017-10-27T13:07:18.650Z,1019.71
2017-10-27T13:08:28.061Z,1019.8
2017-10-27T13:09:38.325Z,1019.7
2017-10-27T13:10:48.916Z,1019.65
2017-10-27T13:11:58.988Z,1019.67
2017-10-27T13:13:09.263Z,1019.6
2017-10-27T13:14:19.880Z,1019.65
2017-10-27T13:15:29.304Z,1019.68
2017-10-27T13:16:39.571Z,1019.57
2017-10-27T13:17:49.437Z,1019.6
2017-10-27T13:18:59.559Z,1019.59
2017-10-27T13:20:09.085Z,1019.56
2017-10-27T13:21:19.297Z,1019.63
2017-10-27T13:22:28.654Z,1019.65
2017-10-27T13:23:38.192Z,1019.55
2017-10-27T13:24:48.465Z,1019.6
2017-10-27T13:25:58.207Z,1019.52
2017-10-27T13:27:08.120Z,1019.53
2017-10-27T13:28:18.344Z,1019.63
2017-10-27T13:29:28.078Z,1019.57
2017-10-27T13:30:38.154Z,1019.65
2017-10-27T13:31:48.042Z,1019.64
2017-10-27T13:32:58.163Z,1019.7
2017-10-27T13:34:08.413Z,1019.65
2017-10-27T13:35:18.830Z,1019.65
2017-10-27T13:36:29.230Z,1019.74
2017-10-27T13:37:39.404Z,1019.8
2017-10-27T13:38:49.546Z,1019.74
2017-10-27T13:39:59.267Z,1019.9
2017-10-27T13:41:09.508Z,1019.89
2017-10-27T13:42:19.716Z,1019.96
2017-10-27T13:43:29.110Z,1020.03
2017-10-27T13:44:38.684Z,1019.89
2017-10-27T13:45:48.125Z,1020.02
2017-10-27T13:46:58.173Z,1020.14
2017-10-27T13:48:08.668Z,1020.04
2017-10-27T13:49:18.803Z,1020.02
2017-10-27T13:50:29.186Z,1020.14
2017-10-27T13:51:39.387Z,1020.2
2017-10-27T13:52:48.860Z,1020.09
2017-10-27T13:53:58.583Z,1020.13
2017-10-27T13:55:09.161Z,1020.06
2017-10-27T13:56:18.997Z,1020.2
2017-10-27T13:57:29.441Z,1020.21
2017-10-27T13:58:39.001Z,1020.14
2017-10-27T13:59:49.551Z,1020.14
2017-10-27T14:00:59.392Z,1020.17
2017-10-27T14:02:09.458Z,1020.05
2017-10-27T14:03:18.951Z,1020.09
2017-10-27T14:04:28.140Z,1020.07
2017-10-27T14:05:37.856Z,1020.09
2017-10-27T14:06:47.690Z,1020.18
2017-10-27T14:07:58.333Z,1020.22
2017-10-27T14:09:08.063Z,1020.19